sensor_id;sensor_type;location;lat;lon;timestamp;pressure;altitude;pressure_sealevel;temperature;humidity
46087;BME280;31824;49.648;8.640;2023-12-22T00:01:14;99099.78;;;4.03;100.00
46087;BME280;31824;49.648;8.640;2023-12-22T00:04:19;99072.16;;;4.04;100.00
46087;BME280;31824;49.648;8.640;2023-12-22T00:07:22;99056.38;;;4.02;100.00
46087;BME280;31824;49.648;8.640;2023-12-22T00:10:24;99064.19;;;3.94;100.00
46087;BME280;31824;49.648;8.640;2023-12-22T00:13:26;99069.06;;;3.99;100.00
46087;BME280;31824;49.648;8.640;2023-12-22T00:16:28;99082.69;;;4.05;100.00
46087;BME280;31824;49.648;8.640;2023-12-22T00:19:30;99104.22;;;4.04;100.00
46087;BME280;31824;49.648;8.640;2023-12-22T00:22:33;99098.09;;;3.95;100.00
46087;BME280;31824;49.648;8.640;2023-12-22T00:25:35;99094.47;;;3.93;100.00
46087;BME280;31824;49.648;8.640;2023-12-22T00:28:37;99102.38;;;4.03;100.00
46087;BME280;31824;49.648;8.640;2023-12-22T00:31:39;99091.56;;;3.99;100.00
46087;BME280;31824;49.648;8.640;2023-12-22T00:34:41;99077.34;;;4.04;100.00
46087;BME280;31824;49.648;8.640;2023-12-22T00:37:44;99078.56;;;3.99;100.00
46087;BME280;31824;49.648;8.640;2023-12-22T00:40:47;99067.53;;;3.93;100.00
46087;BME280;31824;49.648;8.640;2023-12-22T00:43:49;99076.53;;;3.87;100.00
46087;BME280;31824;49.648;8.640;2023-12-22T00:46:50;99065.56;;;3.99;100.00
46087;BME280;31824;49.648;8.640;2023-12-22T00:49:52;99062.22;;;4.00;100.00
46087;BME280;31824;49.648;8.640;2023-12-22T00:52:55;99074.56;;;3.94;100.00
46087;BME280;31824;49.648;8.640;2023-12-22T00:55:57;99060.06;;;4.04;100.00
46087;BME280;31824;49.648;8.640;2023-12-22T00:58:59;99057.78;;;3.99;100.00
46087;BME280;31824;49.648;8.640;2023-12-22T01:02:11;99049.97;;;3.99;100.00
46087;BME280;31824;49.648;8.640;2023-12-22T01:05:13;99025.03;;;4.01;100.00
46087;BME280;31824;49.648;8.640;2023-12-22T01:08:17;99038.94;;;4.10;100.00
46087;BME280;31824;49.648;8.640;2023-12-22T01:11:19;99024.59;;;4.14;100.00
46087;BME280;31824;49.648;8.640;2023-12-22T01:14:21;99020.00;;;4.11;100.00
46087;BME280;31824;49.648;8.640;2023-12-22T01:17:22;99033.75;;;4.10;100.00
46087;BME280;31824;49.648;8.640;2023-12-22T01:20:24;99034.03;;;4.13;100.00
46087;BME280;31824;49.648;8.640;2023-12-22T01:23:27;99011.44;;;4.12;100.00
46087;BME280;31824;49.648;8.640;2023-12-22T01:26:29;99037.13;;;4.18;100.00
46087;BME280;31824;49.648;8.640;2023-12-22T01:29:31;99069.22;;;4.10;100.00
46087;BME280;31824;49.648;8.640;2023-12-22T01:32:33;99113.09;;;4.06;100.00
46087;BME280;31824;49.648;8.640;2023-12-22T01:35:37;99160.31;;;4.02;100.00
46087;BME280;31824;49.648;8.640;2023-12-22T01:38:40;99128.09;;;4.18;100.00
46087;BME280;31824;49.648;8.640;2023-12-22T01:41:42;99109.28;;;4.20;100.00
46087;BME280;31824;49.648;8.640;2023-12-22T01:44:43;99119.66;;;4.29;100.00
46087;BME280;31824;49.648;8.640;2023-12-22T01:47:46;99109.88;;;4.27;100.00
46087;BME280;31824;49.648;8.640;2023-12-22T01:50:49;99116.59;;;4.33;100.00
46087;BME280;31824;49.648;8.640;2023-12-22T01:53:53;99098.56;;;4.26;100.00
46087;BME280;31824;49.648;8.640;2023-12-22T01:56:56;99079.75;;;4.29;100.00
46087;BME280;31824;49.648;8.640;2023-12-22T01:59:58;99074.41;;;4.27;100.00
46087;BME280;31824;49.648;8.640;2023-12-22T02:03:00;99067.53;;;4.28;100.00
46087;BME280;31824;49.648;8.640;2023-12-22T02:06:02;99071.97;;;4.29;100.00
46087;BME280;31824;49.648;8.640;2023-12-22T02:09:06;99067.97;;;4.32;100.00
46087;BME280;31824;49.648;8.640;2023-12-22T02:12:08;99065.97;;;4.38;100.00
46087;BME280;31824;49.648;8.640;2023-12-22T02:15:10;99078.53;;;4.25;100.00
46087;BME280;31824;49.648;8.640;2023-12-22T02:18:16;99117.81;;;4.28;100.00
46087;BME280;31824;49.648;8.640;2023-12-22T02:21:18;99128.69;;;4.33;100.00
46087;BME280;31824;49.648;8.640;2023-12-22T02:24:22;99120.88;;;4.42;100.00
46087;BME280;31824;49.648;8.640;2023-12-22T02:27:28;99082.78;;;4.51;100.00
46087;BME280;31824;49.648;8.640;2023-12-22T02:30:37;99081.41;;;4.54;100.00
46087;BME280;31824;49.648;8.640;2023-12-22T02:33:41;99108.34;;;4.46;100.00
46087;BME280;31824;49.648;8.640;2023-12-22T02:36:44;99098.38;;;4.51;100.00
46087;BME280;31824;49.648;8.640;2023-12-22T02:39:49;99092.28;;;4.50;100.00
46087;BME280;31824;49.648;8.640;2023-12-22T02:42:52;99107.41;;;4.46;100.00
46087;BME280;31824;49.648;8.640;2023-12-22T02:45:54;99101.41;;;4.64;100.00
46087;BME280;31824;49.648;8.640;2023-12-22T02:48:56;99107.84;;;4.59;100.00
46087;BME280;31824;49.648;8.640;2023-12-22T02:51:58;99102.22;;;4.54;100.00
46087;BME280;31824;49.648;8.640;2023-12-22T02:55:01;99107.72;;;4.40;100.00
46087;BME280;31824;49.648;8.640;2023-12-22T02:58:03;99113.38;;;4.45;100.00
46087;BME280;31824;49.648;8.640;2023-12-22T03:01:05;99112.31;;;4.43;100.00
46087;BME280;31824;49.648;8.640;2023-12-22T03:04:06;99119.66;;;4.47;100.00
46087;BME280;31824;49.648;8.640;2023-12-22T03:07:08;99110.00;;;4.63;100.00
46087;BME280;31824;49.648;8.640;2023-12-22T03:10:12;99095.00;;;4.69;100.00
46087;BME280;31824;49.648;8.640;2023-12-22T03:13:14;99091.31;;;4.67;100.00
46087;BME280;31824;49.648;8.640;2023-12-22T03:16:15;99102.47;;;4.66;100.00
46087;BME280;31824;49.648;8.640;2023-12-22T03:19:17;99118.56;;;4.62;100.00
46087;BME280;31824;49.648;8.640;2023-12-22T03:22:19;99127.16;;;4.61;100.00
46087;BME280;31824;49.648;8.640;2023-12-22T03:25:22;99124.53;;;4.61;100.00
46087;BME280;31824;49.648;8.640;2023-12-22T03:28:26;99122.66;;;4.69;100.00
46087;BME280;31824;49.648;8.640;2023-12-22T03:31:28;99108.63;;;4.67;100.00
46087;BME280;31824;49.648;8.640;2023-12-22T03:34:30;99085.19;;;4.67;100.00
46087;BME280;31824;49.648;8.640;2023-12-22T03:37:32;99098.22;;;4.58;100.00
46087;BME280;31824;49.648;8.640;2023-12-22T03:40:36;99087.94;;;4.68;100.00
46087;BME280;31824;49.648;8.640;2023-12-22T03:43:38;99096.06;;;4.63;100.00
46087;BME280;31824;49.648;8.640;2023-12-22T03:46:40;99092.06;;;4.66;100.00
46087;BME280;31824;49.648;8.640;2023-12-22T03:49:42;99083.22;;;4.64;100.00
46087;BME280;31824;49.648;8.640;2023-12-22T03:52:44;99089.00;;;4.70;100.00
46087;BME280;31824;49.648;8.640;2023-12-22T03:55:47;99103.13;;;4.64;100.00
46087;BME280;31824;49.648;8.640;2023-12-22T03:58:49;99112.72;;;4.65;100.00
46087;BME280;31824;49.648;8.640;2023-12-22T04:01:51;99129.44;;;4.67;100.00
46087;BME280;31824;49.648;8.640;2023-12-22T04:04:54;99127.59;;;4.66;100.00
46087;BME280;31824;49.648;8.640;2023-12-22T04:07:56;99149.94;;;4.64;100.00
46087;BME280;31824;49.648;8.640;2023-12-22T04:10:59;99141.06;;;4.62;100.00
46087;BME280;31824;49.648;8.640;2023-12-22T04:14:01;99147.94;;;4.61;100.00
46087;BME280;31824;49.648;8.640;2023-12-22T04:17:03;99136.47;;;4.68;100.00
46087;BME280;31824;49.648;8.640;2023-12-22T04:20:07;99116.28;;;4.65;100.00
46087;BME280;31824;49.648;8.640;2023-12-22T04:23:09;99148.06;;;4.71;100.00
46087;BME280;31824;49.648;8.640;2023-12-22T04:26:12;99147.78;;;4.68;100.00
46087;BME280;31824;49.648;8.640;2023-12-22T04:29:14;99159.09;;;4.69;100.00
46087;BME280;31824;49.648;8.640;2023-12-22T04:32:16;99135.34;;;4.74;100.00
46087;BME280;31824;49.648;8.640;2023-12-22T04:35:18;99126.94;;;4.77;100.00
46087;BME280;31824;49.648;8.640;2023-12-22T04:38:20;99140.75;;;4.76;100.00
46087;BME280;31824;49.648;8.640;2023-12-22T04:41:23;99139.22;;;4.69;100.00
46087;BME280;31824;49.648;8.640;2023-12-22T04:44:25;99139.38;;;4.71;100.00
46087;BME280;31824;49.648;8.640;2023-12-22T04:47:27;99155.44;;;4.67;100.00
46087;BME280;31824;49.648;8.640;2023-12-22T04:50:29;99152.06;;;4.68;100.00
46087;BME280;31824;49.648;8.640;2023-12-22T04:53:31;99154.34;;;4.73;100.00
46087;BME280;31824;49.648;8.640;2023-12-22T04:56:34;99149.63;;;4.69;100.00
46087;BME280;31824;49.648;8.640;2023-12-22T04:59:36;99153.13;;;4.70;100.00
46087;BME280;31824;49.648;8.640;2023-12-22T05:02:38;99152.22;;;4.69;100.00
46087;BME280;31824;49.648;8.640;2023-12-22T05:05:40;99145.31;;;4.70;100.00
46087;BME280;31824;49.648;8.640;2023-12-22T05:08:43;99146.88;;;4.68;100.00
46087;BME280;31824;49.648;8.640;2023-12-22T05:11:46;99161.84;;;4.70;100.00
46087;BME280;31824;49.648;8.640;2023-12-22T05:14:48;99173.75;;;4.77;100.00
46087;BME280;31824;49.648;8.640;2023-12-22T05:17:49;99174.38;;;4.83;100.00
46087;BME280;31824;49.648;8.640;2023-12-22T05:20:52;99197.38;;;4.79;100.00
46087;BME280;31824;49.648;8.640;2023-12-22T05:23:55;99206.38;;;4.82;100.00
46087;BME280;31824;49.648;8.640;2023-12-22T05:26:58;99213.88;;;4.70;100.00
46087;BME280;31824;49.648;8.640;2023-12-22T05:30:00;99216.00;;;4.74;100.00
46087;BME280;31824;49.648;8.640;2023-12-22T05:33:05;99239.13;;;4.71;100.00
46087;BME280;31824;49.648;8.640;2023-12-22T05:36:06;99229.94;;;4.66;100.00
46087;BME280;31824;49.648;8.640;2023-12-22T05:39:08;99221.06;;;4.64;100.00
46087;BME280;31824;49.648;8.640;2023-12-22T05:42:12;99212.19;;;4.62;100.00
46087;BME280;31824;49.648;8.640;2023-12-22T05:45:14;99212.03;;;4.61;100.00
46087;BME280;31824;49.648;8.640;2023-12-22T05:48:16;99227.97;;;4.64;100.00
46087;BME280;31824;49.648;8.640;2023-12-22T05:51:19;99218.47;;;4.64;100.00
46087;BME280;31824;49.648;8.640;2023-12-22T05:54:20;99208.66;;;4.70;100.00
46087;BME280;31824;49.648;8.640;2023-12-22T05:57:26;99203.00;;;4.74;100.00
46087;BME280;31824;49.648;8.640;2023-12-22T06:00:27;99198.25;;;4.70;100.00
46087;BME280;31824;49.648;8.640;2023-12-22T06:03:29;99199.50;;;4.65;100.00
46087;BME280;31824;49.648;8.640;2023-12-22T06:06:31;99208.06;;;4.73;100.00
46087;BME280;31824;49.648;8.640;2023-12-22T06:09:33;99206.69;;;4.77;100.00
46087;BME280;31824;49.648;8.640;2023-12-22T06:12:36;99201.47;;;4.77;100.00
46087;BME280;31824;49.648;8.640;2023-12-22T06:15:38;99208.38;;;4.76;100.00
46087;BME280;31824;49.648;8.640;2023-12-22T06:18:40;99207.88;;;4.89;100.00
46087;BME280;31824;49.648;8.640;2023-12-22T06:21:42;99220.44;;;4.93;100.00
46087;BME280;31824;49.648;8.640;2023-12-22T06:24:44;99210.94;;;4.94;100.00
46087;BME280;31824;49.648;8.640;2023-12-22T06:27:47;99203.13;;;5.02;100.00
46087;BME280;31824;49.648;8.640;2023-12-22T06:30:50;99204.50;;;4.99;100.00
46087;BME280;31824;49.648;8.640;2023-12-22T06:33:52;99204.81;;;4.93;100.00
46087;BME280;31824;49.648;8.640;2023-12-22T06:36:55;99226.13;;;4.98;100.00
46087;BME280;31824;49.648;8.640;2023-12-22T06:39:56;99243.09;;;4.94;100.00
46087;BME280;31824;49.648;8.640;2023-12-22T06:42:59;99258.56;;;4.93;100.00
46087;BME280;31824;49.648;8.640;2023-12-22T06:46:01;99266.38;;;4.93;100.00
46087;BME280;31824;49.648;8.640;2023-12-22T06:49:03;99283.81;;;4.94;100.00
46087;BME280;31824;49.648;8.640;2023-12-22T06:52:08;99286.72;;;4.97;100.00
46087;BME280;31824;49.648;8.640;2023-12-22T06:55:10;99275.09;;;5.02;100.00
46087;BME280;31824;49.648;8.640;2023-12-22T06:58:14;99284.56;;;5.01;100.00
46087;BME280;31824;49.648;8.640;2023-12-22T07:01:19;99288.84;;;5.10;100.00
46087;BME280;31824;49.648;8.640;2023-12-22T07:05:00;99287.00;;;5.08;100.00
46087;BME280;31824;49.648;8.640;2023-12-22T07:08:08;99284.88;;;5.04;100.00
46087;BME280;31824;49.648;8.640;2023-12-22T07:11:11;99285.63;;;5.21;100.00
46087;BME280;31824;49.648;8.640;2023-12-22T07:14:14;99269.38;;;5.23;100.00
46087;BME280;31824;49.648;8.640;2023-12-22T07:21:16;99286.22;;;5.27;100.00
46087;BME280;31824;49.648;8.640;2023-12-22T07:24:19;99283.00;;;5.30;100.00
46087;BME280;31824;49.648;8.640;2023-12-22T07:27:22;99295.59;;;5.25;100.00
46087;BME280;31824;49.648;8.640;2023-12-22T07:30:23;99300.00;;;5.26;100.00
46087;BME280;31824;49.648;8.640;2023-12-22T07:33:26;99304.28;;;5.34;100.00
46087;BME280;31824;49.648;8.640;2023-12-22T07:36:30;99294.03;;;5.36;100.00
46087;BME280;31824;49.648;8.640;2023-12-22T07:39:32;99289.13;;;5.39;100.00
46087;BME280;31824;49.648;8.640;2023-12-22T07:42:34;99304.00;;;5.40;100.00
46087;BME280;31824;49.648;8.640;2023-12-22T07:45:36;99313.63;;;5.41;100.00
46087;BME280;31824;49.648;8.640;2023-12-22T07:48:39;99320.06;;;5.45;100.00
46087;BME280;31824;49.648;8.640;2023-12-22T07:51:42;99328.63;;;5.52;100.00
46087;BME280;31824;49.648;8.640;2023-12-22T07:54:45;99336.56;;;5.63;100.00
46087;BME280;31824;49.648;8.640;2023-12-22T07:57:49;99320.22;;;6.00;100.00
46087;BME280;31824;49.648;8.640;2023-12-22T08:00:52;99325.72;;;6.03;100.00
46087;BME280;31824;49.648;8.640;2023-12-22T08:03:54;99312.72;;;6.31;100.00
46087;BME280;31824;49.648;8.640;2023-12-22T08:06:57;99321.59;;;6.33;100.00
46087;BME280;31824;49.648;8.640;2023-12-22T08:09:59;99324.41;;;6.54;100.00
46087;BME280;31824;49.648;8.640;2023-12-22T08:13:01;99315.59;;;6.62;100.00
46087;BME280;31824;49.648;8.640;2023-12-22T08:16:03;99314.06;;;6.64;100.00
46087;BME280;31824;49.648;8.640;2023-12-22T08:19:05;99295.75;;;6.45;100.00
46087;BME280;31824;49.648;8.640;2023-12-22T08:22:09;99295.56;;;6.52;100.00
46087;BME280;31824;49.648;8.640;2023-12-22T08:25:11;99300.09;;;6.64;100.00
46087;BME280;31824;49.648;8.640;2023-12-22T08:28:13;99294.09;;;6.65;100.00
46087;BME280;31824;49.648;8.640;2023-12-22T08:31:15;99305.84;;;6.98;100.00
46087;BME280;31824;49.648;8.640;2023-12-22T08:34:17;99321.41;;;6.87;100.00
46087;BME280;31824;49.648;8.640;2023-12-22T08:37:20;99334.47;;;7.06;100.00
46087;BME280;31824;49.648;8.640;2023-12-22T08:40:23;99342.56;;;7.09;100.00
46087;BME280;31824;49.648;8.640;2023-12-22T08:43:29;99336.06;;;6.57;100.00
46087;BME280;31824;49.648;8.640;2023-12-22T08:46:30;99344.44;;;6.08;100.00
46087;BME280;31824;49.648;8.640;2023-12-22T08:49:32;99327.41;;;5.94;100.00
46087;BME280;31824;49.648;8.640;2023-12-22T08:52:36;99332.00;;;5.97;100.00
46087;BME280;31824;49.648;8.640;2023-12-22T08:55:38;99320.38;;;6.02;100.00
46087;BME280;31824;49.648;8.640;2023-12-22T08:58:40;99314.41;;;6.03;100.00
46087;BME280;31824;49.648;8.640;2023-12-22T09:01:42;99317.50;;;5.99;100.00
46087;BME280;31824;49.648;8.640;2023-12-22T09:04:44;99325.72;;;6.03;100.00
46087;BME280;31824;49.648;8.640;2023-12-22T09:07:47;99330.06;;;6.31;100.00
46087;BME280;31824;49.648;8.640;2023-12-22T09:10:49;99340.06;;;6.54;100.00
46087;BME280;31824;49.648;8.640;2023-12-22T09:13:51;99338.28;;;6.72;100.00
46087;BME280;31824;49.648;8.640;2023-12-22T09:16:54;99337.34;;;6.90;100.00
46087;BME280;31824;49.648;8.640;2023-12-22T09:19:57;99326.38;;;7.03;100.00
46087;BME280;31824;49.648;8.640;2023-12-22T09:23:01;99333.47;;;6.96;100.00
46087;BME280;31824;49.648;8.640;2023-12-22T09:26:07;99333.06;;;7.10;100.00
46087;BME280;31824;49.648;8.640;2023-12-22T09:29:08;99322.75;;;7.12;100.00
46087;BME280;31824;49.648;8.640;2023-12-22T09:32:10;99335.94;;;7.32;100.00
46087;BME280;31824;49.648;8.640;2023-12-22T09:35:12;99328.81;;;7.40;100.00
46087;BME280;31824;49.648;8.640;2023-12-22T09:38:15;99333.66;;;7.46;100.00
46087;BME280;31824;49.648;8.640;2023-12-22T09:41:17;99315.41;;;7.56;100.00
46087;BME280;31824;49.648;8.640;2023-12-22T09:44:20;99314.81;;;7.39;100.00
46087;BME280;31824;49.648;8.640;2023-12-22T09:47:22;99313.56;;;7.25;100.00
46087;BME280;31824;49.648;8.640;2023-12-22T09:50:26;99317.03;;;7.16;100.00
46087;BME280;31824;49.648;8.640;2023-12-22T09:53:30;99319.84;;;7.08;100.00
46087;BME280;31824;49.648;8.640;2023-12-22T09:56:33;99311.03;;;7.17;100.00
46087;BME280;31824;49.648;8.640;2023-12-22T09:59:35;99313.22;;;7.12;100.00
46087;BME280;31824;49.648;8.640;2023-12-22T10:02:39;99308.34;;;7.25;100.00
46087;BME280;31824;49.648;8.640;2023-12-22T10:05:41;99311.34;;;7.30;100.00
46087;BME280;31824;49.648;8.640;2023-12-22T10:08:46;99315.13;;;7.53;100.00
46087;BME280;31824;49.648;8.640;2023-12-22T10:11:52;99296.59;;;7.50;100.00
46087;BME280;31824;49.648;8.640;2023-12-22T10:14:54;99308.06;;;7.52;100.00
46087;BME280;31824;49.648;8.640;2023-12-22T10:17:57;99303.69;;;7.61;100.00
46087;BME280;31824;49.648;8.640;2023-12-22T10:20:59;99298.44;;;7.61;100.00
46087;BME280;31824;49.648;8.640;2023-12-22T10:24:04;99290.88;;;7.64;100.00
46087;BME280;31824;49.648;8.640;2023-12-22T10:27:06;99289.19;;;7.65;100.00
46087;BME280;31824;49.648;8.640;2023-12-22T10:30:09;99284.88;;;7.65;100.00
46087;BME280;31824;49.648;8.640;2023-12-22T10:33:11;99281.09;;;7.62;100.00
46087;BME280;31824;49.648;8.640;2023-12-22T10:36:13;99269.38;;;7.77;100.00
46087;BME280;31824;49.648;8.640;2023-12-22T10:39:17;99270.19;;;7.86;100.00
46087;BME280;31824;49.648;8.640;2023-12-22T10:42:19;99277.28;;;7.68;100.00
46087;BME280;31824;49.648;8.640;2023-12-22T10:45:21;99264.09;;;7.67;100.00
46087;BME280;31824;49.648;8.640;2023-12-22T10:48:23;99262.22;;;7.95;100.00
46087;BME280;31824;49.648;8.640;2023-12-22T10:51:25;99258.94;;;7.98;100.00
46087;BME280;31824;49.648;8.640;2023-12-22T10:54:29;99242.75;;;7.91;100.00
46087;BME280;31824;49.648;8.640;2023-12-22T10:57:32;99237.00;;;8.06;100.00
46087;BME280;31824;49.648;8.640;2023-12-22T11:00:41;99232.81;;;8.08;100.00
46087;BME280;31824;49.648;8.640;2023-12-22T11:03:49;99234.91;;;8.22;100.00
46087;BME280;31824;49.648;8.640;2023-12-22T11:06:56;99231.25;;;8.10;100.00
46087;BME280;31824;49.648;8.640;2023-12-22T11:10:03;99228.78;;;8.22;100.00
46087;BME280;31824;49.648;8.640;2023-12-22T11:13:06;99222.25;;;8.27;100.00
46087;BME280;31824;49.648;8.640;2023-12-22T11:16:09;99217.13;;;8.39;100.00
46087;BME280;31824;49.648;8.640;2023-12-22T11:19:11;99207.22;;;8.45;100.00
46087;BME280;31824;49.648;8.640;2023-12-22T11:22:14;99199.09;;;8.42;100.00
46087;BME280;31824;49.648;8.640;2023-12-22T11:25:19;99205.91;;;8.50;100.00
46087;BME280;31824;49.648;8.640;2023-12-22T11:28:22;99198.84;;;8.49;100.00
46087;BME280;31824;49.648;8.640;2023-12-22T11:31:27;99191.00;;;8.59;100.00
46087;BME280;31824;49.648;8.640;2023-12-22T11:34:30;99204.06;;;8.49;100.00
46087;BME280;31824;49.648;8.640;2023-12-22T11:37:34;99188.63;;;8.52;100.00
46087;BME280;31824;49.648;8.640;2023-12-22T11:40:39;99170.66;;;8.36;100.00
46087;BME280;31824;49.648;8.640;2023-12-22T11:43:42;99174.50;;;8.30;100.00
46087;BME280;31824;49.648;8.640;2023-12-22T11:46:45;99177.75;;;8.27;100.00
46087;BME280;31824;49.648;8.640;2023-12-22T11:49:47;99173.06;;;8.23;100.00
46087;BME280;31824;49.648;8.640;2023-12-22T11:52:52;99168.88;;;8.15;100.00
46087;BME280;31824;49.648;8.640;2023-12-22T11:55:59;99169.00;;;8.06;100.00
46087;BME280;31824;49.648;8.640;2023-12-22T11:59:01;99167.94;;;7.93;100.00
46087;BME280;31824;49.648;8.640;2023-12-22T12:02:07;99151.47;;;8.05;100.00
46087;BME280;31824;49.648;8.640;2023-12-22T12:05:11;99144.00;;;7.99;100.00
46087;BME280;31824;49.648;8.640;2023-12-22T12:08:14;99147.41;;;7.98;100.00
46087;BME280;31824;49.648;8.640;2023-12-22T12:11:18;99141.91;;;7.95;100.00
46087;BME280;31824;49.648;8.640;2023-12-22T12:14:22;99126.63;;;8.00;100.00
46087;BME280;31824;49.648;8.640;2023-12-22T12:17:28;99117.97;;;8.01;100.00
46087;BME280;31824;49.648;8.640;2023-12-22T12:20:32;99119.53;;;8.09;100.00
46087;BME280;31824;49.648;8.640;2023-12-22T12:23:34;99111.16;;;8.13;100.00
46087;BME280;31824;49.648;8.640;2023-12-22T12:26:38;99112.22;;;8.15;100.00
46087;BME280;31824;49.648;8.640;2023-12-22T12:29:40;99102.53;;;8.24;100.00
46087;BME280;31824;49.648;8.640;2023-12-22T12:32:43;99110.34;;;8.35;100.00
46087;BME280;31824;49.648;8.640;2023-12-22T12:35:48;99108.50;;;8.44;100.00
46087;BME280;31824;49.648;8.640;2023-12-22T12:38:55;99099.50;;;8.61;100.00
46087;BME280;31824;49.648;8.640;2023-12-22T12:42:02;99098.41;;;8.69;100.00
46087;BME280;31824;49.648;8.640;2023-12-22T12:45:08;99113.50;;;8.94;100.00
46087;BME280;31824;49.648;8.640;2023-12-22T12:48:10;99109.56;;;8.99;100.00
46087;BME280;31824;49.648;8.640;2023-12-22T12:51:17;99110.56;;;9.01;100.00
46087;BME280;31824;49.648;8.640;2023-12-22T12:54:19;99112.66;;;9.05;100.00
46087;BME280;31824;49.648;8.640;2023-12-22T12:57:23;99105.13;;;8.88;100.00
46087;BME280;31824;49.648;8.640;2023-12-22T13:00:25;99110.09;;;8.95;100.00
46087;BME280;31824;49.648;8.640;2023-12-22T13:03:27;99108.75;;;9.00;100.00
46087;BME280;31824;49.648;8.640;2023-12-22T13:06:29;99115.56;;;8.98;100.00
46087;BME280;31824;49.648;8.640;2023-12-22T13:09:32;99101.50;;;9.08;100.00
46087;BME280;31824;49.648;8.640;2023-12-22T13:12:36;99106.31;;;9.13;100.00
46087;BME280;31824;49.648;8.640;2023-12-22T13:15:40;99100.06;;;9.11;100.00
46087;BME280;31824;49.648;8.640;2023-12-22T13:18:42;99098.22;;;9.10;100.00
46087;BME280;31824;49.648;8.640;2023-12-22T13:21:44;99099.81;;;9.08;100.00
46087;BME280;31824;49.648;8.640;2023-12-22T13:24:54;99112.94;;;8.98;100.00
46087;BME280;31824;49.648;8.640;2023-12-22T13:27:58;99112.41;;;9.02;100.00
46087;BME280;31824;49.648;8.640;2023-12-22T13:31:00;99117.34;;;9.09;100.00
46087;BME280;31824;49.648;8.640;2023-12-22T13:34:02;99114.72;;;9.09;100.00
46087;BME280;31824;49.648;8.640;2023-12-22T13:37:04;99106.44;;;9.15;100.00
46087;BME280;31824;49.648;8.640;2023-12-22T13:40:08;99104.91;;;9.07;100.00
46087;BME280;31824;49.648;8.640;2023-12-22T13:43:12;99099.84;;;8.98;100.00
46087;BME280;31824;49.648;8.640;2023-12-22T13:46:14;99102.84;;;9.03;100.00
46087;BME280;31824;49.648;8.640;2023-12-22T13:49:18;99104.50;;;9.12;100.00
46087;BME280;31824;49.648;8.640;2023-12-22T13:52:24;99109.75;;;9.12;100.00
46087;BME280;31824;49.648;8.640;2023-12-22T13:55:26;99111.53;;;9.24;100.00
46087;BME280;31824;49.648;8.640;2023-12-22T13:58:30;99116.31;;;9.29;100.00
46087;BME280;31824;49.648;8.640;2023-12-22T14:01:32;99113.59;;;9.28;100.00
46087;BME280;31824;49.648;8.640;2023-12-22T14:04:34;99107.28;;;9.26;100.00
46087;BME280;31824;49.648;8.640;2023-12-22T14:07:36;99112.81;;;9.29;100.00
46087;BME280;31824;49.648;8.640;2023-12-22T14:10:44;99115.44;;;9.29;100.00
46087;BME280;31824;49.648;8.640;2023-12-22T14:13:48;99115.53;;;9.08;100.00
46087;BME280;31824;49.648;8.640;2023-12-22T14:16:51;99113.28;;;9.35;100.00
46087;BME280;31824;49.648;8.640;2023-12-22T14:19:53;99118.09;;;9.63;100.00
46087;BME280;31824;49.648;8.640;2023-12-22T14:22:55;99122.13;;;9.70;100.00
46087;BME280;31824;49.648;8.640;2023-12-22T14:25:57;99116.25;;;9.62;100.00
46087;BME280;31824;49.648;8.640;2023-12-22T14:29:01;99118.00;;;9.73;100.00
46087;BME280;31824;49.648;8.640;2023-12-22T14:32:03;99125.59;;;9.92;100.00
46087;BME280;31824;49.648;8.640;2023-12-22T14:35:10;99117.00;;;9.71;100.00
46087;BME280;31824;49.648;8.640;2023-12-22T14:38:12;99125.47;;;9.91;100.00
46087;BME280;31824;49.648;8.640;2023-12-22T14:41:14;99127.09;;;10.01;100.00
46087;BME280;31824;49.648;8.640;2023-12-22T14:44:18;99115.53;;;9.87;100.00
46087;BME280;31824;49.648;8.640;2023-12-22T14:47:20;99124.81;;;9.93;100.00
46087;BME280;31824;49.648;8.640;2023-12-22T14:50:22;99122.84;;;9.91;100.00
46087;BME280;31824;49.648;8.640;2023-12-22T14:53:24;99127.22;;;10.02;100.00
46087;BME280;31824;49.648;8.640;2023-12-22T14:56:25;99135.91;;;9.79;100.00
46087;BME280;31824;49.648;8.640;2023-12-22T14:59:29;99136.47;;;9.97;100.00
46087;BME280;31824;49.648;8.640;2023-12-22T15:02:31;99151.09;;;9.83;100.00
46087;BME280;31824;49.648;8.640;2023-12-22T15:05:33;99146.91;;;9.85;100.00
46087;BME280;31824;49.648;8.640;2023-12-22T15:08:38;99156.78;;;10.00;100.00
46087;BME280;31824;49.648;8.640;2023-12-22T15:11:41;99155.78;;;9.87;100.00
46087;BME280;31824;49.648;8.640;2023-12-22T15:14:45;99157.00;;;10.03;100.00
46087;BME280;31824;49.648;8.640;2023-12-22T15:17:47;99158.84;;;10.16;100.00
46087;BME280;31824;49.648;8.640;2023-12-22T15:20:51;99157.84;;;10.13;100.00
46087;BME280;31824;49.648;8.640;2023-12-22T15:23:53;99172.53;;;10.00;100.00
46087;BME280;31824;49.648;8.640;2023-12-22T15:26:54;99162.97;;;9.78;100.00
46087;BME280;31824;49.648;8.640;2023-12-22T15:29:58;99169.53;;;9.95;100.00
46087;BME280;31824;49.648;8.640;2023-12-22T15:32:59;99173.63;;;9.91;100.00
46087;BME280;31824;49.648;8.640;2023-12-22T15:36:02;99167.34;;;9.89;100.00
46087;BME280;31824;49.648;8.640;2023-12-22T15:39:04;99174.59;;;9.82;100.00
46087;BME280;31824;49.648;8.640;2023-12-22T15:42:05;99185.59;;;9.88;100.00
46087;BME280;31824;49.648;8.640;2023-12-22T15:45:09;99189.47;;;9.71;100.00
46087;BME280;31824;49.648;8.640;2023-12-22T15:48:13;99193.19;;;9.62;100.00
46087;BME280;31824;49.648;8.640;2023-12-22T15:51:15;99199.84;;;9.69;100.00
46087;BME280;31824;49.648;8.640;2023-12-22T15:54:21;99206.31;;;9.62;100.00
46087;BME280;31824;49.648;8.640;2023-12-22T15:57:23;99206.34;;;9.85;100.00
46087;BME280;31824;49.648;8.640;2023-12-22T16:00:26;99209.34;;;9.79;100.00
46087;BME280;31824;49.648;8.640;2023-12-22T16:03:29;99207.78;;;9.81;100.00
46087;BME280;31824;49.648;8.640;2023-12-22T16:06:31;99207.28;;;9.75;100.00
46087;BME280;31824;49.648;8.640;2023-12-22T16:09:34;99213.19;;;9.72;100.00
46087;BME280;31824;49.648;8.640;2023-12-22T16:12:35;99215.47;;;9.68;100.00